createdAt,value
2023-05-07T00:00:26.889Z,44.95
2023-05-07T00:01:36.153Z,44.75
2023-05-07T00:02:59.515Z,45.21
2023-05-07T00:04:02.714Z,45.02
2023-05-07T00:05:06.990Z,45.18
2023-05-07T00:06:11.278Z,45.08
2023-05-07T00:07:15.047Z,45.18
2023-05-07T00:08:17.305Z,45.51
2023-05-07T00:09:20.652Z,45.30
2023-05-07T00:10:23.284Z,45.64
2023-05-07T00:11:37.317Z,46.11
2023-05-07T00:12:40.737Z,46.05
2023-05-07T00:13:44.022Z,46.60
2023-05-07T00:14:46.603Z,46.32
2023-05-07T00:15:49.979Z,46.54
2023-05-07T00:16:52.440Z,46.74
2023-05-07T00:17:56.587Z,47.19
2023-05-07T00:18:59.226Z,47.20
2023-05-07T00:20:02.530Z,47.53
2023-05-07T00:21:05.418Z,47.80
2023-05-07T00:22:11.437Z,47.76
2023-05-07T00:23:14.252Z,47.97
2023-05-07T00:24:18.089Z,47.90
2023-05-07T00:25:20.933Z,48.15
2023-05-07T00:26:24.562Z,48.37
2023-05-07T00:27:27.081Z,48.48
2023-05-07T00:28:30.377Z,48.67
2023-05-07T00:29:33.167Z,48.57
2023-05-07T00:30:36.565Z,48.53
2023-05-07T00:31:38.997Z,48.66
2023-05-07T00:32:42.422Z,48.83
2023-05-07T00:33:44.831Z,48.93
2023-05-07T00:34:48.144Z,48.96
2023-05-07T00:35:50.486Z,49.29
2023-05-07T00:36:54.257Z,48.91
2023-05-07T00:37:58.125Z,49.25
2023-05-07T00:39:04.490Z,49.35
2023-05-07T00:40:08.932Z,49.52
2023-05-07T00:41:12.455Z,49.25
2023-05-07T00:42:16.149Z,49.29
2023-05-07T00:43:19.530Z,49.36
2023-05-07T00:44:22.346Z,49.05
2023-05-07T00:45:28.236Z,49.24
2023-05-07T00:46:32.646Z,49.50
2023-05-07T00:47:36.139Z,49.43
2023-05-07T00:48:38.560Z,49.46
2023-05-07T00:49:45.136Z,49.71
2023-05-07T00:50:48.249Z,49.68
2023-05-07T00:51:52.684Z,49.32
2023-05-07T00:52:57.397Z,49.62
2023-05-07T00:54:02.160Z,49.50
2023-05-07T00:55:08.970Z,49.73
2023-05-07T00:56:12.321Z,49.46
2023-05-07T00:57:16.871Z,49.22
2023-05-07T00:58:19.277Z,49.16
2023-05-07T00:59:22.585Z,49.23
2023-05-07T01:00:26.773Z,49.00
2023-05-07T01:01:31.999Z,49.19
2023-05-07T01:02:34.562Z,49.10
2023-05-07T01:03:38.450Z,49.06
2023-05-07T01:04:41.563Z,49.22
2023-05-07T01:05:47.527Z,49.05
2023-05-07T01:06:51.081Z,49.34
2023-05-07T01:07:57.229Z,49.17
2023-05-07T01:09:02.324Z,49.28
2023-05-07T01:10:06.718Z,49.38
2023-05-07T01:11:10.152Z,49.70
2023-05-07T01:12:15.266Z,49.52
2023-05-07T01:13:17.947Z,49.60
2023-05-07T01:14:22.608Z,49.62
2023-05-07T01:15:25.315Z,50.05
2023-05-07T01:16:28.999Z,50.24
2023-05-07T01:17:34.948Z,50.15
2023-05-07T01:18:38.350Z,50.33
2023-05-07T01:19:40.782Z,50.76
2023-05-07T01:20:45.125Z,50.73
2023-05-07T01:21:49.355Z,51.02
2023-05-07T01:22:54.745Z,51.08
2023-05-07T01:23:58.444Z,51.29
2023-05-07T01:25:02.867Z,51.63
2023-05-07T01:26:05.976Z,51.48
2023-05-07T01:27:09.487Z,51.79
2023-05-07T01:28:12.264Z,51.97
2023-05-07T01:29:15.728Z,51.85
2023-05-07T01:30:19.966Z,52.38
2023-05-07T01:31:24.388Z,52.72
2023-05-07T01:32:34.188Z,52.68
2023-05-07T01:33:40.611Z,52.67
2023-05-07T01:34:44.504Z,52.98
2023-05-07T01:35:49.971Z,53.44
2023-05-07T01:36:53.627Z,53.42
2023-05-07T01:37:59.303Z,53.44
2023-05-07T01:39:03.327Z,53.61
2023-05-07T01:40:08.757Z,53.46
2023-05-07T01:41:13.018Z,53.85
2023-05-07T01:42:16.341Z,53.85
2023-05-07T01:43:19.027Z,53.74
2023-05-07T01:44:22.874Z,53.71
2023-05-07T01:45:26.905Z,53.85
2023-05-07T01:46:31.032Z,53.70
2023-05-07T01:47:34.864Z,53.63
2023-05-07T01:48:39.479Z,53.73
2023-05-07T01:49:43.144Z,53.82
2023-05-07T01:50:46.856Z,53.60
2023-05-07T01:51:49.809Z,53.63
2023-05-07T01:52:53.700Z,53.94
2023-05-07T01:53:57.786Z,53.83
2023-05-07T01:55:01.147Z,53.54
2023-05-07T01:56:03.814Z,54.07
2023-05-07T01:57:07.316Z,53.54
2023-05-07T01:58:09.727Z,53.63
2023-05-07T01:59:15.098Z,53.60
2023-05-07T02:00:18.632Z,53.42
2023-05-07T02:01:22.505Z,53.71
2023-05-07T02:02:26.550Z,53.33
2023-05-07T02:03:29.086Z,53.77
2023-05-07T02:04:32.970Z,53.74
2023-05-07T02:05:35.608Z,53.75
2023-05-07T02:06:39.178Z,54.02
2023-05-07T02:07:41.964Z,54.05
2023-05-07T02:08:45.429Z,54.21
2023-05-07T07:23:52.846Z,29.54
2023-05-07T07:24:55.365Z,29.99
2023-05-07T07:25:58.852Z,29.37
2023-05-07T07:27:02.302Z,29.86
2023-05-07T07:28:05.745Z,29.76
2023-05-07T07:29:08.088Z,28.87
2023-05-07T07:30:12.041Z,28.80
2023-05-07T07:31:15.041Z,28.42
2023-05-07T07:32:18.460Z,28.88
2023-05-07T07:33:20.985Z,28.03
2023-05-07T07:34:24.463Z,28.75
2023-05-07T07:35:27.082Z,28.00
2023-05-07T07:36:39.051Z,28.24
2023-05-07T07:37:50.969Z,28.39
2023-05-07T07:38:56.017Z,28.53
2023-05-07T07:39:59.442Z,27.80
2023-05-07T07:41:01.879Z,27.85
2023-05-07T07:42:05.390Z,27.69
2023-05-07T07:43:07.885Z,27.44
2023-05-07T07:44:15.967Z,27.70
2023-05-07T07:45:20.113Z,27.46
2023-05-07T07:46:22.582Z,27.50
2023-05-07T07:47:26.312Z,26.95
2023-05-07T07:48:28.864Z,27.34
2023-05-07T07:49:32.237Z,27.26
2023-05-07T07:50:44.557Z,27.19
2023-05-07T07:51:49.188Z,26.96
2023-05-07T07:52:52.479Z,26.34
2023-05-07T07:53:59.578Z,26.47
2023-05-07T07:55:02.299Z,26.15
2023-05-07T07:56:06.261Z,25.79
2023-05-07T07:57:08.694Z,25.92
2023-05-07T07:58:12.040Z,25.44
2023-05-07T07:59:19.274Z,25.47
2023-05-07T08:00:22.924Z,25.18
2023-05-07T08:01:36.549Z,25.27
2023-05-07T08:02:39.069Z,25.09
2023-05-07T08:03:42.665Z,25.21
2023-05-07T08:04:45.633Z,25.86
2023-05-07T08:05:50.787Z,25.02
2023-05-07T08:06:55.983Z,25.50
2023-05-07T08:07:59.658Z,25.38
2023-05-07T08:09:04.754Z,25.50
2023-05-07T08:10:08.091Z,25.17
2023-05-07T08:11:12.057Z,24.87
2023-05-07T08:12:14.682Z,25.01
2023-05-07T08:13:18.172Z,24.64
2023-05-07T08:14:20.709Z,24.97
2023-05-07T08:15:24.563Z,24.11
2023-05-07T08:16:27.119Z,24.45
2023-05-07T08:17:30.791Z,24.09
2023-05-07T08:18:33.209Z,24.46
2023-05-07T08:19:36.504Z,24.29
2023-05-07T08:20:41.180Z,23.78
2023-05-07T08:21:44.525Z,23.88
2023-05-07T08:22:47.009Z,24.44
2023-05-07T08:23:50.586Z,23.72
2023-05-07T08:24:54.784Z,24.39
2023-05-07T08:25:58.689Z,23.81
2023-05-07T08:27:01.191Z,23.92
2023-05-07T08:28:05.587Z,23.64
2023-05-07T08:29:08.994Z,24.07
2023-05-07T08:30:13.602Z,23.65
2023-05-07T08:31:17.163Z,23.63
2023-05-07T08:32:19.764Z,24.12
2023-05-07T08:33:24.683Z,23.62
2023-05-07T08:34:28.204Z,23.54
2023-05-07T08:35:31.914Z,23.35
2023-05-07T08:36:35.568Z,23.34
2023-05-07T08:37:40.355Z,23.38
2023-05-07T08:38:46.833Z,23.54
2023-05-07T08:39:50.455Z,23.18
2023-05-07T08:40:55.464Z,23.54
2023-05-07T08:42:03.297Z,23.30
2023-05-07T08:43:07.680Z,23.66
2023-05-07T08:44:15.160Z,23.16
2023-05-07T08:45:20.246Z,24.25
2023-05-07T08:46:24.660Z,23.18
2023-05-07T08:47:34.478Z,23.48
2023-05-07T08:48:40.858Z,22.94
2023-05-07T08:49:44.418Z,23.34
2023-05-07T08:50:50.052Z,23.77
2023-05-07T08:51:54.918Z,23.29
2023-05-07T08:52:59.359Z,23.46
2023-05-07T08:54:04.363Z,23.52
2023-05-07T08:55:10.477Z,23.61
2023-05-07T08:56:16.312Z,23.99
2023-05-07T08:57:21.008Z,23.66
2023-05-07T08:58:26.515Z,23.61
2023-05-07T08:59:32.730Z,23.39
2023-05-07T09:00:37.148Z,23.98
2023-05-07T09:01:43.146Z,24.06
2023-05-07T09:02:46.250Z,24.67
2023-05-07T09:03:50.169Z,24.66
2023-05-07T09:04:54.630Z,24.59
2023-05-07T09:05:58.037Z,24.63
2023-05-07T09:07:06.542Z,24.62
2023-05-07T09:08:17.062Z,23.75
2023-05-07T09:09:19.823Z,23.38
2023-05-07T09:10:26.872Z,23.18
2023-05-07T09:11:32.242Z,23.29
2023-05-07T09:12:36.357Z,22.91
2023-05-07T09:13:40.170Z,23.06
2023-05-07T09:14:42.722Z,22.40
2023-05-07T09:15:46.407Z,22.98
2023-05-07T09:16:54.824Z,23.39
2023-05-07T09:18:02.601Z,23.75
2023-05-07T09:19:06.076Z,23.65
2023-05-07T09:20:11.000Z,24.09
2023-05-07T09:21:17.921Z,23.84
2023-05-07T09:22:21.404Z,24.05
2023-05-07T09:23:24.753Z,24.08
2023-05-07T09:24:29.572Z,23.62
2023-05-07T09:25:34.577Z,23.98
2023-05-07T09:26:39.628Z,24.05
2023-05-07T09:27:44.115Z,23.92
2023-05-07T09:28:48.807Z,23.62
2023-05-07T09:29:51.599Z,24.08
2023-05-07T09:30:54.972Z,23.80
2023-05-07T09:31:57.437Z,24.36
2023-05-07T09:33:02.587Z,24.14
2023-05-07T09:34:06.106Z,24.36
2023-05-07T09:35:17.804Z,24.47
2023-05-07T09:36:20.369Z,24.47
2023-05-07T09:37:24.100Z,24.64
2023-05-07T09:38:28.268Z,24.46
2023-05-07T09:39:41.988Z,24.66
2023-05-07T09:40:44.445Z,25.09
2023-05-07T09:41:52.430Z,25.71
2023-05-07T09:42:56.152Z,25.30
2023-05-07T09:44:01.463Z,25.92
2023-05-07T09:45:06.665Z,26.10
2023-05-07T09:46:14.809Z,26.79
2023-05-07T09:47:21.483Z,26.74
2023-05-07T09:48:24.505Z,26.97
2023-05-07T09:49:33.181Z,26.67
2023-05-07T09:50:39.113Z,26.64
2023-05-07T09:51:49.128Z,27.11
2023-05-07T09:52:52.572Z,26.63
2023-05-07T09:53:55.330Z,27.04
2023-05-07T09:55:01.872Z,27.23
2023-05-07T09:56:05.456Z,27.46
2023-05-07T09:57:13.740Z,27.68
2023-05-07T09:58:17.566Z,28.28
2023-05-07T09:59:22.587Z,28.06
2023-05-07T10:00:27.966Z,27.79
2023-05-07T10:01:35.266Z,28.77
2023-05-07T10:02:38.714Z,28.56
2023-05-07T10:03:44.187Z,28.95
2023-05-07T10:04:47.557Z,29.09
2023-05-07T10:05:52.593Z,29.48
2023-05-07T10:06:57.707Z,29.79
2023-05-07T10:08:03.959Z,29.30
2023-05-07T10:09:09.202Z,30.01
2023-05-07T10:10:12.444Z,30.25
2023-05-07T10:11:17.418Z,30.51
2023-05-07T10:12:22.448Z,31.18
2023-05-07T10:13:26.890Z,31.17
2023-05-07T10:14:30.964Z,31.92
2023-05-07T10:15:33.720Z,31.87
2023-05-07T10:16:38.915Z,31.75
2023-05-07T10:17:42.512Z,32.41
2023-05-07T10:18:46.676Z,32.15
2023-05-07T10:19:50.093Z,32.62
2023-05-07T10:20:55.166Z,32.40
2023-05-07T10:22:04.430Z,32.73
2023-05-07T10:23:08.551Z,32.51
2023-05-07T10:24:18.409Z,32.69
2023-05-07T10:25:24.662Z,33.01
2023-05-07T10:26:31.107Z,33.59
2023-05-07T10:27:36.147Z,33.87
2023-05-07T10:28:42.189Z,33.35
2023-05-07T10:29:55.251Z,33.58
2023-05-07T10:31:10.266Z,34.14
2023-05-07T10:32:27.832Z,34.45
2023-05-07T10:33:33.287Z,34.38
2023-05-07T10:34:38.801Z,33.92
2023-05-07T10:35:45.102Z,33.82
2023-05-07T10:36:49.223Z,34.53
2023-05-07T10:37:53.262Z,34.44
2023-05-07T10:38:57.231Z,34.30
2023-05-07T10:40:00.980Z,34.34
2023-05-07T10:41:06.688Z,34.36
2023-05-07T10:42:11.052Z,34.55
2023-05-07T10:43:15.795Z,34.78
2023-05-07T10:44:29.689Z,34.98
2023-05-07T10:45:34.095Z,35.52
2023-05-07T10:46:36.777Z,35.22
2023-05-07T10:49:22.814Z,36.33
2023-05-07T10:50:27.895Z,36.41
2023-05-07T10:51:32.315Z,36.45
2023-05-07T10:52:36.818Z,36.11
2023-05-07T10:53:39.213Z,36.37
2023-05-07T10:54:43.439Z,36.26
2023-05-07T10:55:47.686Z,36.45
2023-05-07T10:56:52.193Z,36.03
2023-05-07T10:57:55.758Z,35.60
2023-05-07T10:59:43.071Z,35.84
2023-05-07T11:00:45.828Z,35.78
2023-05-07T11:01:57.316Z,35.82
2023-05-07T11:03:08.282Z,35.48
2023-05-07T11:04:16.856Z,35.44
2023-05-07T11:05:22.792Z,35.40
2023-05-07T11:06:26.706Z,35.98
2023-05-07T11:07:31.193Z,35.73
2023-05-07T11:08:55.411Z,35.71
2023-05-07T11:10:02.163Z,35.37
2023-05-07T11:11:05.940Z,35.36
2023-05-07T11:12:08.744Z,34.92
2023-05-07T11:13:12.680Z,35.21
2023-05-07T11:14:46.917Z,34.39
2023-05-07T11:15:50.811Z,34.84
2023-05-07T11:17:03.910Z,34.32
2023-05-07T11:18:08.164Z,34.70
2023-05-07T11:19:12.711Z,34.70
2023-05-07T11:20:16.599Z,34.58
2023-05-07T11:21:39.936Z,34.36
2023-05-07T11:22:42.589Z,34.37
2023-05-07T11:24:02.282Z,33.85
2023-05-07T11:25:05.872Z,34.30
2023-05-07T11:26:11.095Z,34.11
2023-05-07T11:27:14.990Z,34.37
2023-05-07T11:28:18.556Z,34.52
2023-05-07T11:29:24.593Z,34.67
2023-05-07T11:30:27.529Z,34.50
2023-05-07T11:31:31.993Z,34.41
2023-05-07T11:32:35.685Z,34.43
2023-05-07T11:33:39.691Z,34.30
2023-05-07T11:34:43.784Z,34.43
2023-05-07T11:35:47.978Z,33.98
2023-05-07T11:36:51.467Z,34.57
2023-05-07T11:38:01.321Z,35.07
2023-05-07T11:39:05.030Z,34.99
2023-05-07T11:40:09.194Z,34.47
2023-05-07T11:41:12.695Z,34.87
2023-05-07T11:42:28.211Z,34.30
2023-05-07T11:43:31.067Z,34.50
2023-05-07T11:44:49.308Z,34.96
2023-05-07T11:45:52.787Z,34.60
2023-05-07T11:46:56.216Z,34.34
2023-05-07T11:47:58.711Z,34.42
2023-05-07T11:49:03.321Z,34.56
2023-05-07T11:50:09.334Z,34.07
2023-05-07T11:51:13.610Z,34.59
2023-05-07T11:52:16.278Z,34.09
2023-05-07T11:53:22.214Z,33.98
2023-05-07T11:54:24.653Z,34.49
2023-05-07T11:55:28.580Z,34.28
2023-05-07T11:56:31.926Z,34.07
2023-05-07T11:57:35.095Z,33.91
2023-05-07T11:58:38.924Z,33.87
2023-05-07T11:59:42.504Z,33.76
2023-05-07T12:00:51.833Z,34.04
2023-05-07T12:02:00.294Z,34.05
2023-05-07T12:03:05.605Z,34.34
2023-05-07T12:04:09.427Z,34.11
2023-05-07T12:05:12.350Z,34.03
2023-05-07T12:06:18.057Z,33.56
2023-05-07T12:07:20.545Z,33.53
2023-05-07T12:08:24.459Z,33.80
2023-05-07T12:09:27.595Z,34.02
2023-05-07T12:10:31.010Z,33.94
2023-05-07T12:11:33.582Z,34.30
2023-05-07T12:12:41.621Z,34.76
2023-05-07T12:13:44.493Z,35.03
2023-05-07T12:14:48.446Z,35.07
2023-05-07T12:15:54.667Z,34.79
2023-05-07T12:16:58.553Z,34.76
2023-05-07T12:18:01.411Z,34.71
2023-05-07T12:19:05.105Z,34.59
2023-05-07T12:20:08.952Z,34.45
2023-05-07T12:21:13.094Z,34.87
2023-05-07T12:22:16.997Z,34.71
2023-05-07T12:23:19.920Z,35.13
2023-05-07T12:24:23.324Z,35.30
2023-05-07T12:25:25.864Z,34.96
2023-05-07T12:26:29.574Z,34.73
2023-05-07T12:27:32.262Z,34.65
2023-05-07T12:28:40.853Z,34.43
2023-05-07T12:29:47.335Z,35.20
2023-05-07T12:30:52.934Z,35.01
2023-05-07T12:31:56.814Z,35.39
2023-05-07T12:33:01.432Z,34.99
2023-05-07T12:34:05.216Z,35.19
2023-05-07T12:35:08.397Z,35.19
2023-05-07T12:36:15.627Z,34.51
2023-05-07T12:37:18.284Z,34.86
2023-05-07T12:38:21.670Z,34.70
2023-05-07T12:39:25.127Z,34.76
2023-05-07T12:40:37.394Z,35.19
2023-05-07T12:41:56.312Z,35.04
2023-05-07T12:43:00.930Z,34.43
2023-05-07T12:44:06.934Z,34.72
2023-05-07T12:45:11.141Z,34.74
2023-05-07T12:46:17.729Z,35.07
2023-05-07T12:47:22.247Z,35.09
2023-05-07T12:48:28.134Z,35.12
2023-05-07T12:49:30.848Z,35.33
2023-05-07T12:50:35.334Z,34.85
2023-05-07T12:51:38.897Z,34.96
2023-05-07T12:52:41.726Z,34.69
2023-05-07T12:53:46.468Z,34.54
2023-05-07T12:54:49.519Z,34.63
2023-05-07T12:55:55.487Z,34.17
2023-05-07T12:57:06.844Z,33.96
2023-05-07T12:58:09.476Z,34.01
2023-05-07T12:59:12.896Z,34.02
2023-05-07T13:00:16.204Z,34.33
2023-05-07T13:01:31.137Z,34.87
2023-05-07T13:02:56.567Z,34.26
2023-05-07T13:04:03.924Z,34.49
2023-05-07T13:05:07.435Z,34.60
2023-05-07T13:06:13.341Z,34.23
2023-05-07T13:07:15.880Z,34.81
2023-05-07T13:08:35.365Z,34.99
2023-05-07T13:09:40.335Z,34.97
2023-05-07T13:10:43.801Z,34.86
2023-05-07T13:11:47.167Z,34.20
2023-05-07T13:12:49.626Z,33.58
2023-05-07T13:13:53.104Z,33.39
2023-05-07T13:14:55.615Z,33.87
2023-05-07T13:15:59.187Z,33.84
2023-05-07T13:17:01.633Z,34.09
2023-05-07T13:18:06.529Z,34.03
2023-05-07T13:19:11.312Z,34.28
2023-05-07T13:20:14.089Z,34.51
2023-05-07T13:21:17.880Z,34.64
2023-05-07T13:22:20.895Z,34.79
2023-05-07T13:23:24.484Z,34.69
2023-05-07T13:24:26.890Z,35.20
2023-05-07T13:25:30.282Z,34.47
2023-05-07T13:26:33.345Z,34.66
2023-05-07T13:27:38.079Z,34.57
2023-05-07T13:28:41.597Z,34.42
2023-05-07T13:29:44.004Z,34.29
2023-05-07T13:30:47.307Z,34.63
2023-05-07T13:31:50.502Z,34.68
2023-05-07T13:32:57.677Z,34.58
2023-05-07T13:34:02.412Z,34.67
2023-05-07T13:35:05.731Z,34.84
2023-05-07T13:36:09.497Z,35.17
2023-05-07T13:37:12.699Z,35.02
2023-05-07T13:38:17.255Z,35.04
2023-05-07T13:39:20.120Z,35.38
2023-05-07T13:40:23.894Z,34.84
2023-05-07T13:41:26.300Z,34.72
2023-05-07T13:42:30.282Z,34.69
2023-05-07T13:43:34.683Z,34.74
2023-05-07T13:44:37.073Z,35.02
2023-05-07T13:45:40.442Z,34.83
2023-05-07T13:46:43.452Z,34.26
2023-05-07T13:47:48.504Z,33.71
2023-05-07T13:48:52.207Z,34.27
2023-05-07T13:49:57.134Z,34.07
2023-05-07T13:51:00.807Z,34.09
2023-05-07T13:52:03.411Z,34.40
2023-05-07T13:53:07.015Z,34.47
2023-05-07T13:54:09.437Z,34.08
2023-05-07T13:55:13.585Z,33.89
2023-05-07T13:56:16.302Z,34.20
2023-05-07T13:57:19.723Z,34.92
2023-05-07T13:58:22.880Z,34.15
2023-05-07T13:59:26.223Z,34.14
2023-05-07T14:00:30.590Z,34.19
2023-05-07T14:01:36.040Z,34.61
2023-05-07T14:02:39.610Z,34.46
2023-05-07T14:03:43.319Z,34.96
2023-05-07T14:04:46.968Z,34.86
2023-05-07T14:05:51.742Z,34.48
2023-05-07T14:06:54.148Z,34.71
2023-05-07T14:07:59.615Z,35.28
2023-05-07T14:09:03.413Z,35.01
2023-05-07T14:10:07.880Z,35.13
2023-05-07T14:11:10.448Z,34.72
2023-05-07T14:12:13.865Z,35.14
2023-05-07T14:13:16.549Z,35.15
2023-05-07T14:14:20.234Z,35.14
2023-05-07T14:15:22.836Z,35.35
2023-05-07T14:16:26.323Z,34.97
2023-05-07T14:17:28.834Z,35.38
2023-05-07T14:18:32.361Z,35.22
2023-05-07T14:19:36.632Z,35.32
2023-05-07T14:20:39.075Z,35.33
2023-05-07T14:21:43.739Z,35.50
2023-05-07T14:22:47.354Z,35.48
2023-05-07T14:23:49.844Z,35.66
2023-05-07T14:25:05.918Z,35.12
2023-05-07T14:26:09.526Z,34.94
2023-05-07T14:27:13.177Z,34.76
2023-05-07T14:28:15.709Z,34.76
2023-05-07T14:29:23.798Z,34.98
2023-05-07T14:30:27.725Z,34.67
2023-05-07T14:31:31.300Z,34.95
2023-05-07T14:32:34.969Z,34.62
2023-05-07T14:33:39.138Z,34.69
2023-05-07T14:34:45.025Z,35.03
2023-05-07T14:35:49.927Z,35.22
2023-05-07T14:36:54.723Z,35.13
2023-05-07T14:37:58.157Z,34.33
2023-05-07T14:39:00.616Z,34.63
2023-05-07T14:40:04.899Z,34.95
2023-05-07T14:41:07.587Z,34.64
2023-05-07T14:42:11.096Z,34.74
2023-05-07T14:43:13.858Z,34.89
2023-05-07T14:44:17.359Z,34.64
2023-05-07T14:45:19.807Z,34.93
2023-05-07T14:46:25.169Z,35.00
2023-05-07T14:47:28.667Z,35.00
2023-05-07T14:48:31.214Z,34.85
2023-05-07T14:49:34.633Z,34.99
2023-05-07T14:50:37.285Z,34.76
2023-05-07T14:51:41.025Z,35.37
2023-05-07T14:52:44.900Z,35.42
2023-05-07T14:53:48.490Z,34.98
2023-05-07T14:54:50.868Z,35.36
2023-05-07T14:55:55.042Z,35.20
2023-05-07T14:56:58.434Z,35.05
2023-05-07T14:58:01.092Z,35.22
2023-05-07T14:59:05.051Z,34.99
2023-05-07T15:00:10.772Z,35.38
2023-05-07T15:01:15.655Z,34.78
2023-05-07T15:02:21.202Z,34.99
2023-05-07T15:03:24.330Z,35.07
2023-05-07T15:04:27.927Z,35.12
2023-05-07T15:05:30.393Z,35.03
2023-05-07T15:06:34.579Z,34.69
2023-05-07T15:07:37.080Z,35.04
2023-05-07T15:08:41.786Z,34.93
2023-05-07T15:09:45.474Z,34.66
2023-05-07T15:10:48.496Z,35.30
2023-05-07T15:11:51.881Z,35.10
2023-05-07T15:12:54.458Z,35.10
2023-05-07T15:13:58.315Z,35.36
2023-05-07T15:15:01.049Z,34.76
2023-05-07T15:16:04.486Z,35.02
2023-05-07T15:17:07.556Z,34.97
2023-05-07T15:18:10.952Z,34.95
2023-05-07T15:19:18.622Z,35.92
2023-05-07T15:20:25.772Z,35.28
2023-05-07T15:21:41.077Z,35.59
2023-05-07T15:23:16.453Z,35.63
2023-05-07T15:24:25.563Z,35.76
2023-05-07T15:25:32.787Z,35.48
2023-05-07T15:26:37.768Z,35.81
2023-05-07T15:27:51.466Z,35.69
2023-05-07T15:28:57.542Z,35.46
2023-05-07T15:30:00.171Z,35.20
2023-05-07T15:31:03.729Z,35.30
2023-05-07T15:32:08.004Z,35.02
2023-05-07T15:33:10.772Z,35.13
2023-05-07T15:34:16.892Z,35.16
2023-05-07T15:35:22.822Z,35.13
2023-05-07T15:36:27.188Z,35.21
2023-05-07T15:37:29.612Z,35.12
2023-05-07T15:38:33.017Z,35.24
2023-05-07T15:39:36.996Z,35.47
2023-05-07T15:40:42.920Z,35.29
2023-05-07T15:41:45.557Z,35.52
2023-05-07T15:42:49.140Z,36.08
2023-05-07T15:43:53.769Z,35.71
2023-05-07T15:44:57.419Z,36.11
2023-05-07T15:46:01.200Z,35.50
2023-05-07T15:47:04.863Z,36.03
2023-05-07T15:48:07.501Z,36.13
2023-05-07T15:49:11.643Z,36.22
2023-05-07T15:50:14.197Z,36.01
2023-05-07T15:51:17.819Z,36.22
2023-05-07T15:52:21.831Z,36.39
2023-05-07T15:53:25.226Z,36.45
2023-05-07T15:54:27.704Z,36.42
2023-05-07T15:55:32.675Z,36.47
2023-05-07T15:56:35.157Z,36.36
2023-05-07T15:57:40.239Z,36.34
2023-05-07T15:58:42.941Z,36.50
2023-05-07T15:59:46.509Z,36.64
2023-05-07T16:00:49.786Z,36.71
2023-05-07T16:01:54.052Z,36.61
2023-05-07T16:02:56.904Z,36.38
2023-05-07T16:04:01.466Z,36.57
2023-05-07T16:05:08.971Z,36.69
2023-05-07T16:06:13.889Z,36.50
2023-05-07T16:07:16.339Z,36.69
2023-05-07T16:08:19.838Z,36.47
2023-05-07T16:09:22.508Z,36.61
2023-05-07T16:10:27.006Z,36.39
2023-05-07T16:11:33.933Z,36.41
2023-05-07T16:12:37.528Z,36.73
2023-05-07T16:13:40.293Z,36.68
2023-05-07T16:14:43.968Z,36.35
2023-05-07T16:15:46.654Z,36.76
2023-05-07T16:16:50.481Z,36.52
2023-05-07T16:17:58.298Z,36.47
2023-05-07T16:19:02.321Z,36.62
2023-05-07T16:20:06.559Z,36.97
2023-05-07T16:21:13.075Z,36.93
2023-05-07T16:22:16.286Z,36.71
2023-05-07T16:23:19.785Z,36.29
2023-05-07T16:24:23.271Z,36.63
2023-05-07T16:25:28.233Z,36.72
2023-05-07T16:26:32.143Z,36.76
2023-05-07T16:27:35.622Z,37.09
2023-05-07T16:28:38.243Z,37.03
2023-05-07T16:29:41.910Z,37.34
2023-05-07T16:30:45.590Z,36.99
2023-05-07T16:31:48.129Z,37.34
2023-05-07T16:32:52.079Z,37.39
2023-05-07T16:33:54.678Z,37.01
2023-05-07T16:34:58.148Z,37.31
2023-05-07T16:36:00.566Z,37.38
2023-05-07T16:37:05.804Z,37.47
2023-05-07T16:38:11.922Z,37.16
2023-05-07T16:39:15.409Z,37.28
2023-05-07T16:40:18.002Z,37.36
2023-05-07T16:41:23.160Z,37.69
2023-05-07T16:42:27.114Z,37.23
2023-05-07T16:43:30.611Z,37.47
2023-05-07T16:44:33.525Z,37.51
2023-05-07T16:45:36.983Z,37.57
2023-05-07T16:46:39.775Z,37.77
2023-05-07T16:47:43.246Z,37.98
2023-05-07T16:48:45.882Z,38.43
2023-05-07T16:49:50.534Z,38.01
2023-05-07T16:50:52.996Z,38.19
2023-05-07T16:51:56.843Z,38.01
2023-05-07T16:52:59.514Z,38.70
2023-05-07T16:54:03.355Z,38.30
2023-05-07T16:55:06.865Z,38.61
2023-05-07T16:56:10.535Z,38.59
2023-05-07T16:57:13.417Z,38.50
2023-05-07T16:58:18.289Z,38.53
2023-05-07T16:59:21.635Z,39.14
2023-05-07T17:00:27.847Z,38.84
2023-05-07T17:01:39.126Z,38.80
2023-05-07T17:02:47.275Z,39.38
2023-05-07T17:03:50.944Z,39.34
2023-05-07T17:04:53.565Z,38.94
2023-05-07T17:05:57.714Z,39.71
2023-05-07T17:07:00.169Z,39.80
2023-05-07T17:08:03.544Z,39.67
2023-05-07T17:09:07.041Z,39.61
2023-05-07T17:10:10.207Z,40.04
2023-05-07T17:11:13.670Z,39.68
2023-05-07T17:12:16.886Z,39.71
2023-05-07T17:13:21.734Z,40.15
2023-05-07T17:14:24.251Z,39.94
2023-05-07T17:15:27.910Z,40.51
2023-05-07T17:16:30.351Z,39.98
2023-05-07T17:17:34.015Z,40.44
2023-05-07T17:18:37.420Z,40.15
2023-05-07T17:19:40.191Z,40.57
2023-05-07T17:20:43.963Z,40.29
2023-05-07T17:21:46.516Z,40.46
2023-05-07T17:22:49.994Z,40.50
2023-05-07T17:23:52.794Z,40.54
2023-05-07T17:24:56.254Z,40.96
2023-05-07T17:25:58.797Z,41.08
2023-05-07T17:27:02.229Z,41.20
2023-05-07T17:28:04.885Z,40.95
2023-05-07T17:29:09.666Z,41.51
2023-05-07T17:30:13.629Z,41.18
2023-05-07T17:31:18.577Z,41.30
2023-05-07T17:32:21.199Z,41.23
2023-05-07T17:33:25.035Z,40.90
2023-05-07T17:34:29.459Z,41.47
2023-05-07T17:35:32.818Z,41.57
2023-05-07T17:36:36.492Z,41.27
2023-05-07T17:37:40.194Z,41.06
2023-05-07T17:38:42.616Z,41.13
2023-05-07T17:39:46.387Z,41.19
2023-05-07T17:40:49.028Z,40.95
2023-05-07T17:41:52.469Z,41.56
2023-05-07T17:42:56.205Z,41.45
2023-05-07T17:44:00.802Z,41.56
2023-05-07T17:45:05.829Z,41.51
2023-05-07T17:46:08.990Z,41.37
2023-05-07T17:47:14.290Z,41.59
2023-05-07T17:48:17.548Z,41.57
2023-05-07T17:49:21.424Z,41.29
2023-05-07T17:50:23.857Z,41.09
2023-05-07T17:51:36.084Z,40.81
2023-05-07T17:52:46.171Z,41.32
2023-05-07T17:53:48.770Z,41.13
2023-05-07T17:54:52.241Z,41.23
2023-05-07T17:55:54.925Z,41.17
2023-05-07T17:56:58.423Z,41.25
2023-05-07T17:58:02.796Z,41.33
2023-05-07T17:59:06.393Z,41.16
2023-05-07T18:00:11.516Z,40.73
2023-05-07T18:01:16.503Z,41.04
2023-05-07T18:02:19.266Z,41.25
2023-05-07T18:03:24.636Z,40.89
2023-05-07T18:04:28.282Z,40.80
2023-05-07T18:05:31.891Z,40.48
2023-05-07T18:06:35.317Z,40.75
2023-05-07T18:07:37.802Z,41.19
2023-05-07T18:08:41.321Z,40.43
2023-05-07T18:09:43.867Z,40.79
2023-05-07T18:10:47.421Z,40.82
2023-05-07T18:11:49.843Z,41.18
2023-05-07T18:12:53.382Z,41.18
2023-05-07T18:14:02.026Z,40.87
2023-05-07T18:15:07.844Z,40.86
2023-05-07T18:16:11.823Z,40.87
2023-05-07T18:17:15.288Z,41.25
2023-05-07T18:18:18.749Z,40.72
2023-05-07T18:19:22.796Z,41.48
2023-05-07T18:20:26.180Z,41.13
2023-05-07T18:21:28.748Z,41.10
2023-05-07T18:22:32.096Z,40.98
2023-05-07T18:23:36.738Z,41.33
2023-05-07T18:24:40.246Z,41.23
2023-05-07T18:25:42.675Z,40.89
2023-05-07T18:26:46.058Z,41.42
2023-05-07T18:27:49.443Z,41.23
2023-05-07T18:28:51.896Z,41.15
2023-05-07T18:29:56.126Z,41.41
2023-05-07T18:30:58.617Z,41.53
2023-05-07T18:32:03.372Z,40.94
2023-05-07T18:33:08.184Z,41.05
2023-05-07T18:34:11.667Z,41.24
2023-05-07T18:35:14.212Z,41.13
2023-05-07T18:36:18.197Z,41.24
2023-05-07T18:37:22.532Z,41.14
2023-05-07T18:38:26.419Z,41.02
2023-05-07T18:39:29.903Z,41.81
2023-05-07T18:40:32.337Z,41.46
2023-05-07T18:41:36.610Z,41.89
2023-05-07T18:42:39.973Z,41.40
2023-05-07T18:43:42.735Z,41.81
2023-05-07T18:44:46.422Z,41.88
2023-05-07T18:45:49.272Z,41.91
2023-05-07T18:46:52.647Z,41.51
2023-05-07T18:47:56.449Z,41.91
2023-05-07T18:48:59.984Z,41.98
2023-05-07T18:50:02.451Z,41.94
2023-05-07T18:51:05.974Z,42.25
2023-05-07T18:52:09.523Z,42.17
2023-05-07T18:53:11.969Z,42.24
2023-05-07T18:54:15.410Z,41.93
2023-05-07T18:55:18.197Z,42.28
2023-05-07T18:56:21.852Z,41.86
2023-05-07T18:57:24.862Z,42.08
2023-05-07T18:58:28.342Z,42.38
2023-05-07T18:59:30.810Z,42.25
2023-05-07T19:00:34.306Z,42.43
2023-05-07T19:01:37.857Z,42.21
2023-05-07T19:02:41.569Z,42.40
2023-05-07T19:03:46.385Z,42.71
2023-05-07T19:04:49.078Z,42.39
2023-05-07T19:05:52.704Z,42.43
2023-05-07T19:06:56.227Z,42.94
2023-05-07T19:07:58.850Z,42.88